Time;durP1;ratioP1;P1;durP2;ratioP2;P2;SDS_P1;SDS_P2;PMS_P1;PMS_P2;Temp;Humidity;BMP_temperature;BMP_pressure;BME280_temperature;BME280_humidity;BME280_pressure;Samples;Min_cycle;Max_cycle;Signal;HPM_P1;HPM_P2
2023/09/16 00:01:19;;;;;;;7.95;7.25;;;15.00;99.90;;;;;;6188860;23;20178;-89
2023/09/16 00:03:47;;;;;;;9.30;8.50;;;15.00;99.90;;;;;;6213855;23;20198;-89
2023/09/16 00:06:14;;;;;;;8.95;8.05;;;14.90;99.90;;;;;;6184023;23;20178;-89
2023/09/16 00:08:44;;;;;;;9.43;7.88;;;14.90;99.90;;;;;;6214610;23;20174;-89
2023/09/16 00:11:10;;;;;;;10.63;7.68;;;14.90;99.90;;;;;;6186454;23;20170;-89
2023/09/16 00:13:38;;;;;;;8.77;7.95;;;14.80;99.90;;;;;;6213111;23;20625;-89
2023/09/16 00:16:05;;;;;;;9.18;8.27;;;14.80;99.90;;;;;;6210877;23;20174;-90
2023/09/16 00:18:32;;;;;;;9.07;8.00;;;14.80;99.90;;;;;;6213906;23;20227;-90
2023/09/16 00:21:00;;;;;;;9.57;8.43;;;14.70;99.90;;;;;;6214657;23;20625;-90
2023/09/16 00:23:28;;;;;;;10.15;8.10;;;14.70;99.90;;;;;;6214486;23;20208;-89
2023/09/16 00:25:54;;;;;;;8.60;7.78;;;14.70;99.90;;;;;;6214149;23;20632;-89
2023/09/16 00:28:21;;;;;;;9.13;8.23;;;14.70;99.90;;;;;;6215110;23;20176;-89
2023/09/16 00:30:48;;;;;;;9.60;8.30;;;14.70;99.90;;;;;;6215891;23;20174;-90
2023/09/16 00:33:15;;;;;;;8.43;7.65;;;14.60;99.90;;;;;;6187703;23;20648;-89
2023/09/16 00:35:42;;;;;;;9.77;8.23;;;14.60;99.90;;;;;;6213318;23;20496;-89
2023/09/16 00:38:10;;;;;;;8.80;7.90;;;14.60;99.90;;;;;;6214439;23;20938;-89
2023/09/16 00:40:37;;;;;;;9.43;7.85;;;14.60;99.90;;;;;;6214257;23;20205;-89
2023/09/16 00:43:05;;;;;;;8.40;7.60;;;14.80;99.90;;;;;;6214648;23;20181;-90
2023/09/16 00:45:33;;;;;;;9.07;8.18;;;14.70;99.90;;;;;;6162770;23;20202;-90
2023/09/16 00:48:00;;;;;;;8.88;7.85;;;14.70;99.90;;;;;;6215368;23;20489;-90
2023/09/16 00:50:27;;;;;;;10.25;7.93;;;14.60;99.90;;;;;;6215341;23;20173;-89
2023/09/16 00:52:56;;;;;;;8.82;7.80;;;14.60;99.90;;;;;;6214918;23;20174;-90
2023/09/16 00:55:25;;;;;;;8.65;7.78;;;14.50;99.90;;;;;;6188314;23;20173;-90
2023/09/16 00:57:54;;;;;;;9.48;8.57;;;14.50;99.90;;;;;;6215095;23;20177;-90
2023/09/16 01:00:26;;;;;;;8.93;8.10;;;14.50;99.90;;;;;;6188672;23;20212;-90
2023/09/16 01:02:54;;;;;;;9.30;8.30;;;14.50;99.90;;;;;;6214858;23;20507;-89
2023/09/16 01:05:21;;;;;;;8.52;7.72;;;14.40;99.90;;;;;;6213699;23;20664;-90
2023/09/16 01:07:50;;;;;;;9.38;8.30;;;14.40;99.90;;;;;;6214998;23;20178;-89
2023/09/16 01:10:20;;;;;;;10.30;9.13;;;14.50;99.90;;;;;;6209052;23;20180;-89
2023/09/16 01:12:50;;;;;;;8.88;8.02;;;14.60;99.90;;;;;;6215082;23;20174;-90
2023/09/16 01:15:20;;;;;;;8.57;7.75;;;14.50;99.90;;;;;;6213897;23;20159;-90
2023/09/16 01:17:57;;;;;;;10.52;8.30;;;14.50;99.90;;;;;;6162102;23;20174;-90
2023/09/16 01:20:25;;;;;;;9.10;8.20;;;14.40;99.90;;;;;;6214929;23;20158;-89
2023/09/16 01:22:52;;;;;;;9.43;8.52;;;14.30;99.90;;;;;;6214816;23;20180;-90
2023/09/16 01:25:21;;;;;;;9.52;8.50;;;14.20;99.90;;;;;;6213842;23;20201;-90
2023/09/16 01:27:48;;;;;;;9.50;8.65;;;14.20;99.90;;;;;;6213427;23;20380;-90
2023/09/16 01:30:15;;;;;;;9.95;8.27;;;14.20;99.90;;;;;;6164768;23;20170;-90
2023/09/16 01:32:49;;;;;;;9.48;8.52;;;14.20;99.90;;;;;;6188423;23;20180;-89
2023/09/16 01:35:20;;;;;;;9.93;8.90;;;14.20;99.90;;;;;;6185448;23;20177;-88
2023/09/16 01:37:48;;;;;;;9.45;8.50;;;14.10;99.90;;;;;;6187249;23;20166;-89
2023/09/16 01:40:16;;;;;;;9.95;9.00;;;14.10;99.90;;;;;;6213019;23;20184;-90
2023/09/16 01:42:45;;;;;;;9.85;8.93;;;14.10;99.90;;;;;;6213871;23;20199;-89
2023/09/16 01:45:12;;;;;;;10.35;8.35;;;14.10;99.90;;;;;;6213348;23;21003;-89
2023/09/16 01:47:39;;;;;;;10.18;8.30;;;14.10;99.90;;;;;;6188638;23;20180;-89
2023/09/16 01:50:07;;;;;;;9.43;8.43;;;14.10;99.90;;;;;;6214250;23;20170;-89
2023/09/16 01:52:34;;;;;;;8.95;8.05;;;14.10;99.90;;;;;;6209369;23;20193;-89
2023/09/16 01:55:01;;;;;;;9.40;8.48;;;14.40;99.90;;;;;;6214051;23;20180;-90
2023/09/16 01:57:30;;;;;;;11.38;9.23;;;14.30;99.90;;;;;;6214335;23;20265;-90
2023/09/16 01:59:58;;;;;;;10.27;9.18;;;14.30;99.90;;;;;;6213687;23;20182;-90
2023/09/16 02:02:25;;;;;;;9.80;8.90;;;14.10;99.90;;;;;;6187616;23;20182;-89
2023/09/16 02:04:52;;;;;;;10.07;9.07;;;14.10;99.90;;;;;;6213382;23;20201;-90
2023/09/16 02:07:19;;;;;;;10.50;9.10;;;14.10;99.90;;;;;;6185937;23;20502;-90
2023/09/16 02:09:45;;;;;;;9.80;8.80;;;14.00;99.90;;;;;;6211990;23;20174;-90
2023/09/16 02:12:12;;;;;;;11.80;9.00;;;13.90;99.90;;;;;;6186808;23;20516;-90
2023/09/16 02:14:39;;;;;;;10.35;8.73;;;13.90;99.90;;;;;;6213428;23;20178;-89
2023/09/16 02:17:11;;;;;;;10.73;8.77;;;13.90;99.90;;;;;;6214740;23;20188;-90
2023/09/16 02:19:38;;;;;;;9.68;8.52;;;13.90;99.90;;;;;;6214614;23;20184;-90
2023/09/16 02:22:05;;;;;;;10.57;9.48;;;14.00;99.90;;;;;;6184035;23;20181;-90
2023/09/16 02:24:32;;;;;;;11.02;9.93;;;14.00;99.90;;;;;;6212659;23;20190;-90
2023/09/16 02:27:00;;;;;;;10.98;9.88;;;13.90;99.90;;;;;;6187169;23;20177;-89
2023/09/16 02:29:27;;;;;;;10.57;9.38;;;13.80;99.90;;;;;;6187532;23;20213;-90
2023/09/16 02:31:55;;;;;;;10.88;9.77;;;13.80;99.90;;;;;;6213937;23;20174;-89
2023/09/16 02:34:24;;;;;;;10.95;9.80;;;13.80;99.90;;;;;;6186694;23;20696;-89
2023/09/16 02:36:51;;;;;;;10.73;9.60;;;13.80;99.90;;;;;;6213715;23;20866;-90
2023/09/16 02:39:18;;;;;;;10.25;9.25;;;13.90;99.90;;;;;;6187223;23;20773;-89
2023/09/16 02:41:45;;;;;;;9.68;8.77;;;14.10;99.90;;;;;;6214374;23;20219;-89
2023/09/16 02:44:12;;;;;;;10.23;9.15;;;14.10;99.90;;;;;;6186607;23;20173;-90
2023/09/16 02:46:38;;;;;;;10.80;8.73;;;14.00;99.90;;;;;;6187820;23;20212;-89
2023/09/16 02:49:06;;;;;;;10.23;9.25;;;14.00;99.90;;;;;;6212499;23;20174;-89
2023/09/16 02:51:34;;;;;;;11.30;8.95;;;13.90;99.90;;;;;;6213712;23;20193;-90
2023/09/16 02:54:01;;;;;;;11.23;8.85;;;14.00;99.90;;;;;;6212269;23;20510;-89
2023/09/16 02:56:28;;;;;;;9.98;8.95;;;14.10;99.90;;;;;;6213940;23;20244;-90
2023/09/16 02:58:55;;;;;;;10.23;9.25;;;14.00;99.90;;;;;;6212628;23;20173;-89
2023/09/16 03:01:22;;;;;;;10.52;9.43;;;13.90;99.90;;;;;;6212576;23;20174;-89
2023/09/16 03:03:48;;;;;;;11.70;9.60;;;13.90;99.90;;;;;;6185701;23;20190;-90
2023/09/16 03:06:15;;;;;;;10.27;9.18;;;13.80;99.90;;;;;;6212663;23;20240;-90
2023/09/16 03:08:44;;;;;;;10.73;9.55;;;13.70;99.90;;;;;;6212248;23;20176;-89
2023/09/16 03:11:12;;;;;;;9.88;8.88;;;13.70;99.90;;;;;;6213521;23;20170;-90
2023/09/16 03:13:39;;;;;;;11.07;9.60;;;13.70;99.90;;;;;;6212285;23;20240;-89
2023/09/16 03:16:18;;;;;;;10.50;9.48;;;13.60;99.90;;;;;;6213474;23;20172;-90
2023/09/16 03:18:46;;;;;;;10.98;9.88;;;13.60;99.90;;;;;;6212964;23;20539;-89
2023/09/16 03:21:17;;;;;;;10.38;9.32;;;13.60;99.90;;;;;;6215255;23;20177;-90
2023/09/16 03:23:47;;;;;;;11.25;9.80;;;13.60;99.90;;;;;;6214344;23;20166;-89
2023/09/16 03:26:15;;;;;;;10.13;9.13;;;13.60;99.90;;;;;;6215457;23;20198;-89
2023/09/16 03:28:44;;;;;;;10.88;9.77;;;13.60;99.90;;;;;;6187329;23;20185;-89
2023/09/16 03:31:11;;;;;;;11.00;9.65;;;13.60;99.90;;;;;;6214854;23;20209;-89
2023/09/16 03:33:39;;;;;;;12.35;10.40;;;13.60;99.90;;;;;;6215184;23;20245;-90
2023/09/16 03:36:06;;;;;;;12.23;10.57;;;13.70;99.90;;;;;;6215555;23;20170;-90
2023/09/16 03:38:35;;;;;;;11.70;10.57;;;13.60;99.90;;;;;;6214732;23;20174;-89
2023/09/16 03:41:03;;;;;;;11.68;10.48;;;13.60;99.90;;;;;;6215378;23;20501;-90
2023/09/16 03:43:33;;;;;;;14.57;10.15;;;13.60;99.90;;;;;;6214974;23;20178;-89
2023/09/16 03:46:00;;;;;;;11.88;10.07;;;13.60;99.90;;;;;;6215506;23;20194;-89
2023/09/16 03:48:27;;;;;;;12.95;11.02;;;13.60;99.90;;;;;;6185698;23;21003;-89
2023/09/16 03:50:54;;;;;;;11.73;10.63;;;13.60;99.90;;;;;;6215046;23;20579;-90
2023/09/16 03:53:25;;;;;;;12.10;10.77;;;13.60;99.90;;;;;;6214451;23;20170;-90
2023/09/16 03:55:52;;;;;;;11.38;10.25;;;13.50;99.90;;;;;;6215135;23;20197;-89
2023/09/16 03:58:20;;;;;;;12.10;10.93;;;13.50;99.90;;;;;;6215067;23;20174;-90
2023/09/16 04:00:47;;;;;;;14.95;10.70;;;13.40;99.90;;;;;;6214478;23;20177;-89
2023/09/16 04:03:14;;;;;;;11.80;10.52;;;13.40;99.90;;;;;;6163602;23;20186;-89
2023/09/16 04:05:41;;;;;;;11.68;10.48;;;13.40;99.90;;;;;;6214177;23;20194;-89
2023/09/16 04:08:08;;;;;;;12.82;10.73;;;13.40;99.90;;;;;;6211842;23;20176;-90
2023/09/16 04:10:35;;;;;;;12.80;11.02;;;13.40;99.90;;;;;;6213740;23;20180;-89
2023/09/16 04:13:02;;;;;;;11.77;10.07;;;13.30;99.90;;;;;;6214113;23;20178;-90
2023/09/16 04:15:30;;;;;;;12.27;10.98;;;13.30;99.90;;;;;;6212707;23;20166;-90
2023/09/16 04:17:57;;;;;;;10.80;9.70;;;13.30;99.90;;;;;;6214895;23;20181;-90
2023/09/16 04:20:25;;;;;;;12.38;11.07;;;13.30;99.90;;;;;;6213877;23;20174;-90
2023/09/16 04:22:52;;;;;;;12.05;10.45;;;13.30;99.90;;;;;;6188219;23;20170;-89
2023/09/16 04:25:19;;;;;;;12.18;10.90;;;13.30;99.90;;;;;;6162697;23;20252;-90
2023/09/16 04:27:46;;;;;;;12.60;11.13;;;13.30;99.90;;;;;;6214195;23;20635;-89
2023/09/16 04:30:13;;;;;;;11.80;10.55;;;13.30;99.90;;;;;;6213910;23;20180;-89
2023/09/16 04:32:41;;;;;;;11.25;10.05;;;13.30;99.90;;;;;;6214364;23;20241;-89
2023/09/16 04:35:09;;;;;;;11.63;9.35;;;13.40;99.90;;;;;;6213678;23;20691;-90
2023/09/16 04:37:36;;;;;;;11.73;9.93;;;13.50;99.90;;;;;;6187373;23;20629;-89
2023/09/16 04:40:09;;;;;;;11.25;10.15;;;13.40;99.90;;;;;;6188091;23;20178;-90
2023/09/16 04:42:37;;;;;;;12.00;10.70;;;13.30;99.90;;;;;;6212941;23;20489;-90
2023/09/16 04:45:04;;;;;;;11.80;10.63;;;13.30;99.90;;;;;;6213108;23;20277;-89
2023/09/16 04:47:31;;;;;;;12.00;10.80;;;13.20;99.90;;;;;;6187669;23;20211;-90
2023/09/16 04:49:59;;;;;;;11.45;9.73;;;13.20;99.90;;;;;;6214693;23;20180;-89
2023/09/16 04:52:27;;;;;;;11.13;10.02;;;13.20;99.90;;;;;;6213991;23;20198;-89
2023/09/16 04:54:54;;;;;;;10.98;9.85;;;13.20;99.90;;;;;;6215017;23;20204;-89
2023/09/16 04:57:21;;;;;;;12.05;10.70;;;13.20;99.90;;;;;;6214693;23;20174;-89
2023/09/16 04:59:48;;;;;;;12.23;10.13;;;13.20;99.90;;;;;;6163486;23;20166;-89
2023/09/16 05:02:15;;;;;;;13.65;10.90;;;13.20;99.90;;;;;;6213937;23;20507;-89
2023/09/16 05:04:42;;;;;;;11.45;9.32;;;13.20;99.90;;;;;;6214029;23;20504;-88
2023/09/16 05:07:11;;;;;;;12.20;10.43;;;13.20;99.90;;;;;;6214215;23;20498;-89
2023/09/16 05:09:38;;;;;;;10.63;9.45;;;13.20;99.90;;;;;;6214845;23;20170;-89
2023/09/16 05:12:05;;;;;;;11.38;10.18;;;13.20;99.90;;;;;;6213792;23;20612;-89
2023/09/16 05:14:32;;;;;;;14.98;9.93;;;13.30;99.90;;;;;;6213679;23;20180;-90
2023/09/16 05:16:59;;;;;;;14.77;10.45;;;13.30;99.90;;;;;;6213507;23;20166;-89
2023/09/16 05:19:26;;;;;;;13.52;9.93;;;13.30;99.90;;;;;;6214611;23;20169;-89
2023/09/16 05:21:54;;;;;;;11.55;9.93;;;13.30;99.90;;;;;;6214069;23;20177;-89
2023/09/16 05:24:22;;;;;;;10.80;9.70;;;13.30;99.90;;;;;;6183485;23;20257;-89
2023/09/16 05:26:49;;;;;;;11.43;10.13;;;13.30;99.90;;;;;;6206015;23;20519;-88
2023/09/16 05:29:16;;;;;;;14.55;10.13;;;13.30;99.90;;;;;;6214923;23;20196;-89
2023/09/16 05:31:43;;;;;;;11.73;10.10;;;13.40;99.90;;;;;;6187219;23;20181;-89
2023/09/16 05:34:10;;;;;;;10.98;9.25;;;13.30;99.90;;;;;;6208030;23;20178;-89
2023/09/16 05:36:36;;;;;;;11.98;10.05;;;13.30;99.90;;;;;;6188516;23;20181;-90
2023/09/16 05:39:04;;;;;;;10.55;9.27;;;13.30;99.90;;;;;;6214473;23;20177;-88
2023/09/16 05:41:32;;;;;;;10.57;9.57;;;13.40;99.90;;;;;;6213743;23;20174;-89
2023/09/16 05:44:01;;;;;;;12.98;9.82;;;13.40;99.90;;;;;;6184939;23;20911;-89
2023/09/16 05:46:28;;;;;;;11.63;9.52;;;13.40;99.90;;;;;;6213384;23;20204;-89
2023/09/16 05:49:06;;;;;;;13.20;9.65;;;13.40;99.90;;;;;;6214321;23;20180;-90
2023/09/16 05:51:33;;;;;;;11.38;9.73;;;13.50;99.90;;;;;;6213163;23;20698;-88
2023/09/16 05:54:00;;;;;;;10.35;9.35;;;13.60;99.90;;;;;;6213174;23;20184;-89
2023/09/16 05:56:27;;;;;;;9.25;8.35;;;13.60;99.90;;;;;;6214299;23;20180;-87
2023/09/16 05:58:56;;;;;;;11.65;9.32;;;13.80;99.90;;;;;;6187376;23;20185;-89
2023/09/16 06:01:24;;;;;;;9.50;8.55;;;13.80;99.90;;;;;;6214707;23;20213;-89
2023/09/16 06:03:53;;;;;;;10.27;9.07;;;13.80;99.90;;;;;;6212171;23;20190;-88
2023/09/16 06:06:20;;;;;;;10.73;8.95;;;13.80;99.90;;;;;;6211321;23;20190;-88
2023/09/16 06:08:47;;;;;;;9.93;8.77;;;13.90;99.90;;;;;;6213585;23;20174;-88
2023/09/16 06:11:14;;;;;;;9.57;8.60;;;14.00;99.90;;;;;;6162763;23;20174;-87
2023/09/16 06:13:41;;;;;;;9.82;8.93;;;14.10;99.90;;;;;;6213460;23;20512;-88
2023/09/16 06:16:09;;;;;;;9.50;8.52;;;14.10;99.90;;;;;;6213383;23;20174;-89
2023/09/16 06:18:36;;;;;;;10.15;9.13;;;14.10;99.90;;;;;;6211771;23;20169;-87
2023/09/16 06:21:03;;;;;;;10.10;9.10;;;14.20;99.90;;;;;;6186634;23;20506;-88
2023/09/16 06:23:30;;;;;;;9.02;8.23;;;14.30;99.90;;;;;;6212840;23;20514;-89
2023/09/16 06:25:57;;;;;;;9.90;8.93;;;14.40;99.90;;;;;;6184711;23;20248;-89
2023/09/16 06:28:24;;;;;;;9.82;8.57;;;14.50;99.90;;;;;;6187498;23;20177;-88
2023/09/16 06:30:51;;;;;;;9.18;8.27;;;14.60;99.90;;;;;;6213543;23;20216;-88
2023/09/16 06:33:19;;;;;;;10.65;9.00;;;14.60;99.90;;;;;;6211995;23;20177;-88
2023/09/16 06:35:46;;;;;;;9.63;8.63;;;14.60;99.90;;;;;;6186655;23;20688;-88
2023/09/16 06:38:13;;;;;;;9.10;8.20;;;14.80;99.90;;;;;;6212347;23;20170;-88
2023/09/16 06:40:40;;;;;;;11.82;9.82;;;14.90;99.90;;;;;;6213748;23;20169;-88
2023/09/16 06:43:07;;;;;;;11.88;8.82;;;15.00;99.90;;;;;;6210934;23;20170;-88
2023/09/16 06:45:35;;;;;;;9.50;8.57;;;15.10;99.90;;;;;;6211960;23;20200;-88
2023/09/16 06:48:01;;;;;;;10.65;9.52;;;15.20;99.90;;;;;;6211800;23;20181;-88
2023/09/16 06:50:30;;;;;;;10.10;9.10;;;15.30;99.90;;;;;;6212596;23;20253;-89
2023/09/16 06:52:57;;;;;;;10.35;8.95;;;15.40;99.90;;;;;;6211587;23;20554;-88
2023/09/16 06:55:24;;;;;;;10.25;9.13;;;15.50;99.90;;;;;;6212738;23;20924;-88
2023/09/16 06:57:51;;;;;;;8.88;7.97;;;15.50;99.90;;;;;;6210926;23;20612;-88
2023/09/16 07:00:18;;;;;;;10.07;8.43;;;15.60;99.90;;;;;;6210585;23;20176;-88
2023/09/16 07:02:45;;;;;;;9.93;8.65;;;15.70;99.90;;;;;;6212535;23;20181;-88
2023/09/16 07:05:12;;;;;;;9.80;8.65;;;15.80;99.90;;;;;;6185152;23;20184;-88
2023/09/16 07:07:41;;;;;;;10.38;8.77;;;15.90;99.90;;;;;;6211988;23;20197;-88
2023/09/16 07:10:08;;;;;;;9.45;8.45;;;15.90;99.90;;;;;;6213429;23;20178;-88
2023/09/16 07:12:35;;;;;;;9.68;8.75;;;16.00;99.90;;;;;;6211454;23;20257;-88
2023/09/16 07:15:02;;;;;;;9.98;8.80;;;16.00;99.90;;;;;;6212117;23;20178;-88
2023/09/16 07:17:32;;;;;;;9.90;8.80;;;16.20;99.90;;;;;;6213104;23;20180;-88
2023/09/16 07:19:59;;;;;;;11.68;8.18;;;16.30;99.90;;;;;;6186822;23;20556;-90
2023/09/16 07:22:25;;;;;;;9.75;8.18;;;16.40;99.90;;;;;;6213050;23;20170;-87
2023/09/16 07:24:54;;;;;;;11.32;8.70;;;16.50;99.90;;;;;;6186192;23;20289;-88
2023/09/16 07:27:21;;;;;;;8.55;7.75;;;16.50;99.90;;;;;;6212333;23;20529;-87
2023/09/16 07:29:48;;;;;;;10.32;7.85;;;16.60;99.90;;;;;;6210919;23;20201;-88
2023/09/16 07:32:15;;;;;;;8.23;7.43;;;16.70;99.90;;;;;;6210064;23;20177;-88
2023/09/16 07:34:42;;;;;;;8.40;7.60;;;16.80;99.90;;;;;;6209455;23;20172;-88
2023/09/16 07:37:08;;;;;;;10.98;7.50;;;16.90;99.90;;;;;;6183198;23;20176;-88
2023/09/16 07:39:35;;;;;;;8.10;6.65;;;17.00;99.90;;;;;;6184156;23;20196;-89
2023/09/16 07:42:04;;;;;;;9.25;7.78;;;17.00;99.90;;;;;;6159375;23;20166;-89
2023/09/16 07:44:31;;;;;;;7.35;6.70;;;17.20;99.90;;;;;;6210352;23;20528;-90
2023/09/16 07:46:58;;;;;;;8.90;8.10;;;17.30;99.90;;;;;;6181150;23;20202;-87
2023/09/16 07:49:25;;;;;;;8.57;7.20;;;17.40;99.90;;;;;;6212071;23;20609;-87
2023/09/16 07:51:51;;;;;;;8.05;7.25;;;17.40;99.90;;;;;;6211784;23;20190;-88
2023/09/16 07:54:20;;;;;;;7.07;6.47;;;17.50;99.90;;;;;;6209377;23;20174;-89
2023/09/16 07:56:47;;;;;;;16.85;15.13;;;17.70;99.90;;;;;;6185087;23;20174;-90
2023/09/16 07:59:23;;;;;;;9.00;8.10;;;17.80;99.90;;;;;;6211380;23;20178;-91
2023/09/16 08:01:50;;;;;;;7.63;6.93;;;18.00;99.90;;;;;;6184046;23;20297;-91
2023/09/16 08:04:27;;;;;;;7.07;6.32;;;18.10;99.90;;;;;;6187426;23;20174;-90
2023/09/16 08:06:56;;;;;;;6.88;6.28;;;18.10;99.90;;;;;;6190097;23;20181;-91
2023/09/16 08:09:23;;;;;;;7.28;6.68;;;18.20;99.90;;;;;;6190351;23;20174;-90
2023/09/16 08:11:50;;;;;;;7.88;7.10;;;18.30;99.90;;;;;;6216982;23;20395;-89
2023/09/16 08:14:18;;;;;;;6.97;6.38;;;18.40;99.90;;;;;;6214408;23;20174;-89
2023/09/16 08:16:45;;;;;;;9.00;6.93;;;18.60;99.90;;;;;;6215425;23;20170;-91
2023/09/16 08:19:13;;;;;;;7.40;6.80;;;18.60;99.90;;;;;;6189476;23;20232;-91
2023/09/16 08:21:40;;;;;;;7.47;6.78;;;18.70;99.70;;;;;;6165545;23;20265;-90
2023/09/16 08:24:07;;;;;;;7.50;6.80;;;18.90;99.20;;;;;;6215714;23;20208;-94
2023/09/16 08:26:34;;;;;;;7.72;6.90;;;19.00;98.40;;;;;;6190290;23;20854;-91
2023/09/16 08:29:00;;;;;;;7.05;6.32;;;19.30;97.90;;;;;;6190047;23;20522;-90
2023/09/16 08:31:29;;;;;;;6.80;6.10;;;19.30;98.20;;;;;;6217115;23;20184;-92
2023/09/16 08:34:00;;;;;;;6.10;5.60;;;19.30;97.90;;;;;;6212348;23;20802;-89
2023/09/16 08:36:27;;;;;;;6.63;6.03;;;19.30;97.90;;;;;;6185348;23;20192;-89
2023/09/16 08:38:54;;;;;;;7.03;6.43;;;19.40;97.90;;;;;;6186687;23;20181;-89
2023/09/16 08:41:31;;;;;;;5.32;4.93;;;19.50;98.00;;;;;;6213166;23;20252;-90
2023/09/16 08:44:00;;;;;;;6.28;5.78;;;19.60;98.00;;;;;;6212162;23;20185;-89
2023/09/16 08:46:31;;;;;;;6.25;5.65;;;19.80;98.00;;;;;;6187626;23;20205;-91
2023/09/16 08:49:03;;;;;;;6.40;5.75;;;20.20;96.80;;;;;;6214817;23;20166;-87
2023/09/16 08:51:32;;;;;;;7.78;5.80;;;20.60;94.40;;;;;;6214490;23;20684;-88
2023/09/16 08:54:01;;;;;;;5.68;5.28;;;21.00;94.00;;;;;;6183253;23;20174;-88
2023/09/16 08:56:31;;;;;;;5.05;4.65;;;21.50;93.00;;;;;;6209850;23;20182;-87
2023/09/16 08:58:59;;;;;;;5.50;5.00;;;22.30;92.70;;;;;;6157090;23;20185;-86
2023/09/16 09:01:26;;;;;;;5.30;4.90;;;24.20;74.80;;;;;;6206437;23;20264;-89
2023/09/16 09:03:55;;;;;;;5.45;4.68;;;25.30;57.00;;;;;;6209308;23;20200;-88
2023/09/16 09:06:26;;;;;;;5.65;5.10;;;27.00;43.10;;;;;;6212047;23;20519;-89
2023/09/16 09:08:53;;;;;;;4.80;4.40;;;27.70;26.10;;;;;;6213362;23;20174;-88
2023/09/16 09:11:21;;;;;;;24.70;22.40;;;28.80;22.30;;;;;;6214931;23;20176;-88
2023/09/16 09:13:49;;;;;;;6.28;5.80;;;30.00;18.50;;;;;;6212930;23;20174;-89
2023/09/16 09:16:19;;;;;;;5.72;5.32;;;30.80;17.00;;;;;;6212637;23;20170;-88
2023/09/16 09:18:48;;;;;;;5.45;5.13;;;30.90;16.80;;;;;;6211897;23;20481;-91
2023/09/16 09:24:01;;;;;;;5.40;5.00;;;31.30;14.60;;;;;;6187256;23;20174;-88
2023/09/16 09:26:28;;;;;;;5.15;4.75;;;30.70;15.90;;;;;;6212742;23;20636;-89
2023/09/16 09:28:55;;;;;;;6.15;5.40;;;30.20;16.70;;;;;;6188836;23;20181;-88
2023/09/16 09:31:23;;;;;;;5.40;4.97;;;30.10;16.70;;;;;;6213736;23;20173;-89
2023/09/16 09:33:51;;;;;;;5.70;5.30;;;29.80;16.50;;;;;;6187241;23;20174;-90
2023/09/16 09:36:20;;;;;;;5.75;5.35;;;30.40;16.90;;;;;;6164317;23;20173;-88
2023/09/16 09:38:49;;;;;;;5.88;5.47;;;30.30;17.00;;;;;;6214736;23;20173;-91
2023/09/16 09:41:17;;;;;;;5.65;5.25;;;31.70;14.70;;;;;;6213627;23;20252;-90
2023/09/16 09:43:44;;;;;;;6.28;5.47;;;31.30;14.20;;;;;;6211155;23;20492;-89
2023/09/16 09:48:59;;;;;;;5.85;5.38;;;30.40;15.80;;;;;;6166192;23;20545;-90
2023/09/16 09:51:29;;;;;;;5.35;4.95;;;30.20;16.70;;;;;;6211869;23;20189;-90
2023/09/16 09:53:55;;;;;;;6.38;5.65;;;30.50;16.90;;;;;;6212521;23;20180;-90
2023/09/16 09:56:22;;;;;;;5.40;5.00;;;32.40;12.70;;;;;;6212904;23;20173;-90
2023/09/16 09:58:50;;;;;;;5.50;5.00;;;33.00;11.60;;;;;;6211716;23;20521;-90
2023/09/16 10:01:17;;;;;;;6.13;5.43;;;32.90;11.60;;;;;;6213167;23;20183;-90
2023/09/16 10:03:48;;;;;;;6.18;5.78;;;32.50;11.70;;;;;;6211631;23;20269;-90
2023/09/16 10:06:16;;;;;;;6.22;5.72;;;31.10;15.00;;;;;;6213534;23;20162;-90
2023/09/16 10:08:44;;;;;;;5.90;5.50;;;30.10;17.90;;;;;;6212668;23;20176;-90
2023/09/16 10:11:11;;;;;;;6.30;5.75;;;29.30;19.30;;;;;;6213081;23;20643;-90
2023/09/16 10:13:39;;;;;;;6.15;5.50;;;29.00;19.40;;;;;;6211961;23;20174;-90
2023/09/16 10:16:07;;;;;;;6.60;6.03;;;28.70;21.80;;;;;;6213862;23;20261;-90
2023/09/16 10:18:34;;;;;;;6.30;5.80;;;28.50;19.80;;;;;;6213055;23;20179;-89
2023/09/16 10:21:00;;;;;;;5.88;5.43;;;28.60;19.80;;;;;;6185595;23;20643;-89
2023/09/16 10:23:28;;;;;;;6.30;5.70;;;28.90;18.60;;;;;;6212196;23;20169;-89
2023/09/16 10:25:57;;;;;;;6.30;5.70;;;29.70;17.60;;;;;;6213180;23;20165;-89
2023/09/16 10:28:24;;;;;;;6.00;5.60;;;29.50;16.40;;;;;;6211600;23;20204;-89
2023/09/16 10:30:51;;;;;;;6.80;6.20;;;29.50;19.00;;;;;;6211993;23;20180;-89
2023/09/16 10:33:21;;;;;;;6.72;6.00;;;29.20;20.00;;;;;;6211707;23;20176;-89
2023/09/16 10:35:48;;;;;;;6.28;5.78;;;29.40;19.50;;;;;;6213639;23;20510;-89
2023/09/16 10:38:15;;;;;;;6.35;5.85;;;29.40;19.60;;;;;;6213584;23;20177;-90
2023/09/16 10:40:45;;;;;;;6.35;5.85;;;29.00;19.50;;;;;;6213977;23;20170;-89
2023/09/16 10:43:15;;;;;;;6.18;5.57;;;28.70;19.80;;;;;;6212791;23;20177;-89
2023/09/16 10:45:42;;;;;;;5.95;5.50;;;28.60;23.20;;;;;;6214066;23;20178;-89
2023/09/16 10:48:09;;;;;;;6.30;5.80;;;29.50;17.10;;;;;;6187664;23;20193;-89
2023/09/16 10:50:37;;;;;;;6.80;5.80;;;30.40;16.10;;;;;;6213983;23;20193;-87
2023/09/16 10:53:10;;;;;;;4.88;4.47;;;29.60;18.30;;;;;;6213888;23;20240;-87
2023/09/16 10:55:45;;;;;;;6.72;6.10;;;29.10;17.30;;;;;;6213923;23;20180;-87
2023/09/16 10:58:18;;;;;;;5.22;4.72;;;28.60;19.30;;;;;;6213767;23;20165;-87
2023/09/16 11:00:50;;;;;;;5.70;5.20;;;28.40;19.50;;;;;;6213500;23;20630;-87
2023/09/16 11:03:18;;;;;;;5.90;5.40;;;28.20;18.70;;;;;;6213986;23;20162;-87
2023/09/16 11:05:45;;;;;;;9.80;5.70;;;28.00;22.50;;;;;;6212967;23;20173;-87
2023/09/16 11:08:12;;;;;;;5.70;5.20;;;27.50;19.30;;;;;;6213705;23;20200;-86
2023/09/16 11:10:39;;;;;;;5.97;5.47;;;27.50;19.40;;;;;;6214227;23;20256;-86
2023/09/16 11:13:08;;;;;;;5.80;5.30;;;27.60;25.60;;;;;;6212695;23;20170;-87
2023/09/16 11:15:36;;;;;;;5.60;5.10;;;27.10;20.20;;;;;;6162296;23;20616;-87
2023/09/16 11:18:04;;;;;;;8.77;5.15;;;26.90;24.10;;;;;;6186588;23;20626;-86
2023/09/16 11:20:35;;;;;;;5.63;5.13;;;27.00;21.20;;;;;;6187681;23;20491;-84
2023/09/16 11:23:03;;;;;;;5.03;4.63;;;26.80;21.00;;;;;;6213765;23;20162;-86
2023/09/16 11:25:33;;;;;;;5.45;4.93;;;26.90;21.60;;;;;;6213186;23;20197;-83
2023/09/16 11:28:02;;;;;;;6.50;5.10;;;27.10;20.60;;;;;;6213159;23;20204;-83
2023/09/16 11:30:31;;;;;;;6.18;5.13;;;26.90;24.90;;;;;;6211739;23;20663;-83
2023/09/16 11:33:24;;;;;;;6.20;5.60;;;26.70;25.60;;;;;;6213033;23;20170;-83
2023/09/16 11:36:08;;;;;;;5.85;5.00;;;26.60;25.40;;;;;;6212410;23;20392;-86
2023/09/16 11:38:36;;;;;;;6.10;5.28;;;26.40;24.80;;;;;;6212540;23;20160;-86
2023/09/16 11:41:10;;;;;;;5.57;5.03;;;26.30;24.60;;;;;;6214221;23;20169;-86
2023/09/16 11:43:37;;;;;;;5.82;5.40;;;26.30;25.60;;;;;;6213413;23;20162;-85
2023/09/16 11:46:04;;;;;;;5.07;4.65;;;26.40;25.30;;;;;;6214588;23;20179;-86
2023/09/16 11:48:48;;;;;;;5.65;5.03;;;26.60;24.40;;;;;;6214869;23;20189;-85
2023/09/16 11:51:15;;;;;;;5.80;5.30;;;26.60;25.40;;;;;;6214743;23;20252;-86
2023/09/16 11:53:42;;;;;;;5.97;5.38;;;26.30;26.50;;;;;;6214636;23;20177;-85
2023/09/16 11:56:09;;;;;;;5.25;4.85;;;26.30;26.90;;;;;;6188065;23;20176;-85
2023/09/16 11:58:36;;;;;;;5.10;4.70;;;26.20;26.40;;;;;;6188533;23;20181;-85
2023/09/16 12:01:03;;;;;;;6.40;5.05;;;26.40;27.50;;;;;;6188599;23;20170;-85
2023/09/16 12:03:31;;;;;;;5.15;4.65;;;26.40;26.80;;;;;;6213526;23;20162;-85
2023/09/16 12:06:00;;;;;;;5.65;5.15;;;26.50;25.80;;;;;;6214327;23;20174;-85
2023/09/16 12:08:27;;;;;;;4.90;4.50;;;26.50;25.00;;;;;;6188410;23;20190;-85
2023/09/16 12:10:55;;;;;;;5.25;4.57;;;26.50;24.80;;;;;;6213783;23;20174;-85
2023/09/16 12:13:29;;;;;;;5.40;4.15;;;26.50;25.60;;;;;;6188048;23;20180;-85
2023/09/16 12:15:56;;;;;;;5.10;4.60;;;26.40;26.70;;;;;;6186868;23;20181;-85
2023/09/16 12:18:22;;;;;;;5.03;4.63;;;26.30;25.30;;;;;;6214617;23;20173;-85
2023/09/16 12:20:49;;;;;;;4.45;4.05;;;26.10;28.00;;;;;;6213185;23;20184;-85
2023/09/16 12:23:18;;;;;;;4.35;4.05;;;26.30;27.10;;;;;;6213907;23;20674;-86
2023/09/16 12:25:46;;;;;;;5.25;3.90;;;26.30;26.00;;;;;;6214617;23;20169;-85
2023/09/16 12:28:19;;;;;;;5.03;4.63;;;26.30;24.80;;;;;;6214617;23;20519;-86
2023/09/16 12:30:48;;;;;;;8.75;7.95;;;26.30;24.70;;;;;;6213229;23;20162;-85
2023/09/16 12:33:15;;;;;;;4.68;4.28;;;26.30;26.00;;;;;;6212638;23;20179;-85
2023/09/16 12:35:42;;;;;;;4.97;3.95;;;26.30;27.70;;;;;;6212887;23;20183;-86
2023/09/16 12:38:09;;;;;;;5.22;4.82;;;26.30;25.90;;;;;;6187199;23;20181;-85
2023/09/16 12:40:38;;;;;;;4.20;3.83;;;26.20;23.40;;;;;;6213429;23;20176;-86
2023/09/16 12:43:07;;;;;;;4.68;4.28;;;26.10;24.90;;;;;;6213045;23;20499;-86
2023/09/16 12:45:36;;;;;;;5.53;5.10;;;26.10;24.50;;;;;;6213435;23;20176;-85
2023/09/16 12:48:04;;;;;;;4.43;4.03;;;26.00;24.80;;;;;;6186892;23;20216;-86
2023/09/16 12:50:31;;;;;;;3.83;3.53;;;25.90;25.10;;;;;;6187421;23;20194;-86